Sy Liara — 2BSK4 — position and weather

sailwx.info

Track history (hours):
 
Tides and Currents Weather Stations Pressure Air Temp Water Temp Dewpoint Dewpoint Depression Visibility Wind Speed Wind Dir Waves Ship Positions

Sy Liara

Last reported at 2014-Jul-31 15:31 UTC. Time now 2014-Jul-31 15:42 UTC.
Position N 37°49' E 023°48'.

Length 30 m.

Type: Sailing vessel. MMSI: 235068934.

Date/timePositionNaut miles runAvg speedWind from/ knotsBaromVisibWave heightAir tempDewpointWater temp
2014-Jul-31 15:31N 37°49' E 023°48'7 5.8
2014-Jul-31 14:24N 37°43' E 023°53'30 4.4
2014-Jul-31 07:33N 37°30' E 024°27'10 9.1
2014-Jul-31 06:27N 37°26' E 024°39'8 8.7
2014-Jul-31 05:33N 37°23' E 024°48'9 8.6
2014-Jul-31 04:32N 37°21' E 024°58'8 8.2
2014-Jul-31 03:32N 37°21' E 025°09'8 8.2
2014-Jul-31 02:33N 37°22' E 025°19'3 2.3
2014-Jul-31 01:29N 37°25' E 025°20'0 0.0
2014-Jul-31 00:32N 37°25' E 025°20'0 0.0
2014-Jul-30 23:32N 37°25' E 025°20'0 0.0
2014-Jul-30 22:32N 37°25' E 025°20'0 0.0
2014-Jul-30 21:29N 37°25' E 025°20'0 0.0
2014-Jul-30 20:32N 37°25' E 025°20'0 0.0
2014-Jul-30 19:32N 37°25' E 025°20'0 0.0
2014-Jul-30 18:32N 37°25' E 025°20'0 0.0
2014-Jul-30 17:32N 37°25' E 025°20'0 0.0
2014-Jul-30 16:32N 37°25' E 025°20'0 0.0
2014-Jul-30 15:32N 37°25' E 025°20'0 0.0
2014-Jul-30 14:32N 37°25' E 025°20'0 0.0
2014-Jul-30 13:32N 37°25' E 025°20'0 0.0
2014-Jul-30 12:32N 37°25' E 025°20'0 0.0
2014-Jul-30 11:20N 37°25' E 025°20'0 0.0
2014-Jul-30 10:32N 37°25' E 025°20'1 0.8
2014-Jul-30 09:30N 37°24' E 025°20'9 9.0
2014-Jul-30 08:33N 37°29' E 025°11'  
2014-Jul-26 09:25N 37°41' E 023°32'6 7.5
2014-Jul-26 08:33N 37°47' E 023°35'7 6.7
2014-Jul-26 07:33N 37°53' E 023°38'3 2.5
2014-Jul-26 06:31N 37°56' E 023°39'0 0.0
2014-Jul-26 05:22N 37°56' E 023°39'0 0.0
2014-Jul-26 04:22N 37°56' E 023°39'0 0.0
2014-Jul-26 03:31N 37°56' E 023°39'0 0.0
2014-Jul-26 02:31N 37°56' E 023°39'0 0.0
2014-Jul-26 01:22N 37°56' E 023°39'0 0.0
2014-Jul-26 00:22N 37°56' E 023°39'0 0.0
2014-Jul-25 23:31N 37°56' E 023°39'0 0.0
2014-Jul-25 22:19N 37°56' E 023°39'0 0.0
2014-Jul-25 21:28N 37°56' E 023°39'0 0.0
2014-Jul-25 20:25N 37°56' E 023°39'0 0.0
2014-Jul-25 19:22N 37°56' E 023°39'0 0.0
2014-Jul-25 18:31N 37°56' E 023°39'0 0.0
2014-Jul-25 17:28N 37°56' E 023°39'0 0.0
2014-Jul-25 16:31N 37°56' E 023°39'0 0.0
2014-Jul-25 15:31N 37°56' E 023°39'0 0.0
2014-Jul-25 13:22N 37°56' E 023°39'0 0.0
2014-Jul-25 12:25N 37°56' E 023°39'0 0.0
2014-Jul-25 11:28N 37°56' E 023°39'0 0.0
2014-Jul-25 10:28N 37°56' E 023°39'0 0.0
2014-Jul-25 09:10N 37°56' E 023°39'0 0.0
2014-Jul-25 08:28N 37°56' E 023°39'0 0.0
2014-Jul-25 07:25N 37°56' E 023°39'0 0.0
2014-Jul-25 06:25N 37°56' E 023°39'0 0.0
2014-Jul-24 19:31N 37°56' E 023°39'0 0.0
2014-Jul-24 18:31N 37°56' E 023°39'0 0.0
2014-Jul-24 17:31N 37°56' E 023°39'0 0.0
2014-Jul-24 16:25N 37°56' E 023°39'0 0.0
2014-Jul-24 15:22N 37°56' E 023°39'0 0.0
2014-Jul-24 13:31N 37°56' E 023°39'0 0.0
2014-Jul-24 12:31N 37°56' E 023°39'0 0.0
2014-Jul-24 10:10N 37°56' E 023°39'0 0.0
2014-Jul-24 09:28N 37°56' E 023°39'0 0.0
2014-Jul-24 08:22N 37°56' E 023°39'0 0.0
2014-Jul-24 06:22N 37°56' E 023°39'0 0.0
2014-Jul-23 23:10N 37°56' E 023°39'0 0.0
2014-Jul-23 16:17N 37°56' E 023°39'0 0.0
2014-Jul-23 15:14N 37°56' E 023°39'0 0.0
2014-Jul-23 13:11N 37°56' E 023°39'0 0.0
2014-Jul-23 11:14N 37°56' E 023°39'0 0.0
2014-Jul-23 09:29N 37°56' E 023°39'0 0.3
2014-Jul-23 08:33N 37°56' E 023°39'8 7.9
2014-Jul-23 07:33N 37°48' E 023°36'60 2.2
2014-Jul-22 04:31N 36°58' E 024°16'7 7.6
2014-Jul-22 03:33N 36°53' E 024°23'  
Track history (hours):
 
Tides and Currents Weather Stations Pressure Air Temp Water Temp Dewpoint Dewpoint Depression Visibility Wind Speed Wind Dir Waves Ship Positions

Sy Liara

Last reported at 2014-Jul-31 15:31 UTC. Time now 2014-Jul-31 15:42 UTC.
Position N 37°49' E 023°48'.

Length 30 m.

Type: Sailing vessel. MMSI: 235068934.

Date/timePositionNaut miles runAvg speedWind from/ knotsBaromVisibWave heightAir tempDewpointWater temp
2014-Jul-31 15:31N 37°49' E 023°48'7 5.8
2014-Jul-31 14:24N 37°43' E 023°53'30 4.4
2014-Jul-31 07:33N 37°30' E 024°27'10 9.1
2014-Jul-31 06:27N 37°26' E 024°39'8 8.7
2014-Jul-31 05:33N 37°23' E 024°48'9 8.6
2014-Jul-31 04:32N 37°21' E 024°58'8 8.2
2014-Jul-31 03:32N 37°21' E 025°09'8 8.2
2014-Jul-31 02:33N 37°22' E 025°19'3 2.3
2014-Jul-31 01:29N 37°25' E 025°20'0 0.0
2014-Jul-31 00:32N 37°25' E 025°20'0 0.0
2014-Jul-30 23:32N 37°25' E 025°20'0 0.0
2014-Jul-30 22:32N 37°25' E 025°20'0 0.0
2014-Jul-30 21:29N 37°25' E 025°20'0 0.0
2014-Jul-30 20:32N 37°25' E 025°20'0 0.0
2014-Jul-30 19:32N 37°25' E 025°20'0 0.0
2014-Jul-30 18:32N 37°25' E 025°20'0 0.0
2014-Jul-30 17:32N 37°25' E 025°20'0 0.0
2014-Jul-30 16:32N 37°25' E 025°20'0 0.0
2014-Jul-30 15:32N 37°25' E 025°20'0 0.0
2014-Jul-30 14:32N 37°25' E 025°20'0 0.0
2014-Jul-30 13:32N 37°25' E 025°20'0 0.0
2014-Jul-30 12:32N 37°25' E 025°20'0 0.0
2014-Jul-30 11:20N 37°25' E 025°20'0 0.0
2014-Jul-30 10:32N 37°25' E 025°20'1 0.8
2014-Jul-30 09:30N 37°24' E 025°20'9 9.0
2014-Jul-30 08:33N 37°29' E 025°11'  
2014-Jul-26 09:25N 37°41' E 023°32'6 7.5
2014-Jul-26 08:33N 37°47' E 023°35'7 6.7
2014-Jul-26 07:33N 37°53' E 023°38'3 2.5
2014-Jul-26 06:31N 37°56' E 023°39'0 0.0
2014-Jul-26 05:22N 37°56' E 023°39'0 0.0
2014-Jul-26 04:22N 37°56' E 023°39'0 0.0
2014-Jul-26 03:31N 37°56' E 023°39'0 0.0
2014-Jul-26 02:31N 37°56' E 023°39'0 0.0
2014-Jul-26 01:22N 37°56' E 023°39'0 0.0
2014-Jul-26 00:22N 37°56' E 023°39'0 0.0
2014-Jul-25 23:31N 37°56' E 023°39'0 0.0
2014-Jul-25 22:19N 37°56' E 023°39'0 0.0
2014-Jul-25 21:28N 37°56' E 023°39'0 0.0
2014-Jul-25 20:25N 37°56' E 023°39'0 0.0
2014-Jul-25 19:22N 37°56' E 023°39'0 0.0
2014-Jul-25 18:31N 37°56' E 023°39'0 0.0
2014-Jul-25 17:28N 37°56' E 023°39'0 0.0
2014-Jul-25 16:31N 37°56' E 023°39'0 0.0
2014-Jul-25 15:31N 37°56' E 023°39'0 0.0
2014-Jul-25 13:22N 37°56' E 023°39'0 0.0
2014-Jul-25 12:25N 37°56' E 023°39'0 0.0
2014-Jul-25 11:28N 37°56' E 023°39'0 0.0
2014-Jul-25 10:28N 37°56' E 023°39'0 0.0
2014-Jul-25 09:10N 37°56' E 023°39'0 0.0
2014-Jul-25 08:28N 37°56' E 023°39'0 0.0
2014-Jul-25 07:25N 37°56' E 023°39'0 0.0
2014-Jul-25 06:25N 37°56' E 023°39'0 0.0
2014-Jul-24 19:31N 37°56' E 023°39'0 0.0
2014-Jul-24 18:31N 37°56' E 023°39'0 0.0
2014-Jul-24 17:31N 37°56' E 023°39'0 0.0
2014-Jul-24 16:25N 37°56' E 023°39'0 0.0
2014-Jul-24 15:22N 37°56' E 023°39'0 0.0
2014-Jul-24 13:31N 37°56' E 023°39'0 0.0
2014-Jul-24 12:31N 37°56' E 023°39'0 0.0
2014-Jul-24 10:10N 37°56' E 023°39'0 0.0
2014-Jul-24 09:28N 37°56' E 023°39'0 0.0
2014-Jul-24 08:22N 37°56' E 023°39'0 0.0
2014-Jul-24 06:22N 37°56' E 023°39'0 0.0
2014-Jul-23 23:10N 37°56' E 023°39'0 0.0
2014-Jul-23 16:17N 37°56' E 023°39'0 0.0
2014-Jul-23 15:14N 37°56' E 023°39'0 0.0
2014-Jul-23 13:11N 37°56' E 023°39'0 0.0
2014-Jul-23 11:14N 37°56' E 023°39'0 0.0
2014-Jul-23 09:29N 37°56' E 023°39'0 0.3
2014-Jul-23 08:33N 37°56' E 023°39'8 7.9
2014-Jul-23 07:33N 37°48' E 023°36'60 2.2
2014-Jul-22 04:31N 36°58' E 024°16'7 7.6
2014-Jul-22 03:33N 36°53' E 024°23'  

Dump ship's entire track history